Map

Track Data

SID SEASON NUMBER BASIN SUBBASIN NAME ISO_TIME NATURE LAT LON WMO_WIND WMO_PRES WMO_AGENCY TRACK_TYPE DIST2LAND LANDFALL IFLAG USA_AGENCY USA_ATCF_ID USA_LAT USA_LON USA_RECORD USA_STATUS USA_WIND USA_PRES USA_SSHS USA_R34_NE USA_R34_SE USA_R34_SW USA_R34_NW USA_R50_NE USA_R50_SE USA_R50_SW USA_R50_NW USA_R64_NE USA_R64_SE USA_R64_SW USA_R64_NW USA_POCI USA_ROCI USA_RMW USA_EYE TOKYO_LAT TOKYO_LON TOKYO_GRADE TOKYO_WIND TOKYO_PRES TOKYO_R50_DIR TOKYO_R50_LONG TOKYO_R50_SHORT TOKYO_R30_DIR TOKYO_R30_LONG TOKYO_R30_SHORT TOKYO_LAND CMA_LAT CMA_LON CMA_CAT CMA_WIND CMA_PRES HKO_LAT HKO_LON HKO_CAT HKO_WIND HKO_PRES NEWDELHI_LAT NEWDELHI_LON NEWDELHI_GRADE NEWDELHI_WIND NEWDELHI_PRES NEWDELHI_CI NEWDELHI_DP NEWDELHI_POCI REUNION_LAT REUNION_LON REUNION_TYPE REUNION_WIND REUNION_PRES REUNION_TNUM REUNION_CI REUNION_RMW REUNION_R34_NE REUNION_R34_SE REUNION_R34_SW REUNION_R34_NW REUNION_R50_NE REUNION_R50_SE REUNION_R50_SW REUNION_R50_NW REUNION_R64_NE REUNION_R64_SE REUNION_R64_SW REUNION_R64_NW BOM_LAT BOM_LON BOM_TYPE BOM_WIND BOM_PRES BOM_TNUM BOM_CI BOM_RMW BOM_R34_NE BOM_R34_SE BOM_R34_SW BOM_R34_NW BOM_R50_NE BOM_R50_SE BOM_R50_SW BOM_R50_NW BOM_R64_NE BOM_R64_SE BOM_R64_SW BOM_R64_NW BOM_ROCI BOM_POCI BOM_EYE BOM_POS_METHOD BOM_PRES_METHOD NADI_LAT NADI_LON NADI_CAT NADI_WIND NADI_PRES WELLINGTON_LAT WELLINGTON_LON WELLINGTON_WIND WELLINGTON_PRES DS824_LAT DS824_LON DS824_STAGE DS824_WIND DS824_PRES TD9636_LAT TD9636_LON TD9636_STAGE TD9636_WIND TD9636_PRES TD9635_LAT TD9635_LON TD9635_WIND TD9635_PRES TD9635_ROCI NEUMANN_LAT NEUMANN_LON NEUMANN_CLASS NEUMANN_WIND NEUMANN_PRES MLC_LAT MLC_LON MLC_CLASS MLC_WIND MLC_PRES USA_GUST BOM_GUST BOM_GUST_PER REUNION_GUST REUNION_GUST_PER USA_SEAHGT USA_SEARAD_NE USA_SEARAD_SE USA_SEARAD_SW USA_SEARAD_NW STORM_SPEED STORM_DIR
1963260N27266 1963 86 NA GM CINDY 1963-09-16 12:00:00 TS 26.7000 -93.7000 40 hurdat_atl main 296 267 O_____________ hurdat_atl AL041963 26.7000 -93.7000 TS 40 0 6 351
1963260N27266 1963 86 NA GM CINDY 1963-09-16 15:00:00 TS 26.9900 -93.7524 main 262 234 P_____________ AL041963 26.9900 -93.7524 TS 45 0 6 352
1963260N27266 1963 86 NA GM CINDY 1963-09-16 18:00:00 TS 27.3000 -93.8000 50 hurdat_atl main 234 207 O_____________ hurdat_atl AL041963 27.3000 -93.8000 TS 50 0 7 353
1963260N27266 1963 86 NA GM CINDY 1963-09-16 21:00:00 TS 27.6425 -93.8426 main 207 169 P_____________ AL041963 27.6425 -93.8426 TS 52 0 7 353
1963260N27266 1963 86 NA GM CINDY 1963-09-17 00:00:00 TS 28.0000 -93.9000 55 996 hurdat_atl main 169 140 O_____________ hurdat_atl AL041963 28.0000 -93.9000 TS 55 996 0 7 349
1963260N27266 1963 86 NA GM CINDY 1963-09-17 03:00:00 TS 28.3500 -93.9925 main 133 101 P_____________ AL041963 28.3500 -93.9925 TS 55 996 0 7 346
1963260N27266 1963 86 NA GM CINDY 1963-09-17 06:00:00 TS 28.7000 -94.1000 55 hurdat_atl main 101 67 I_____________ hurdat_atl AL041963 28.7000 -94.1000 TS 55 996 0 7 344
1963260N27266 1963 86 NA GM CINDY 1963-09-17 09:00:00 TS 29.0617 -94.2232 main 59 24 P_____________ AL041963 29.0617 -94.2232 TS 55 996 0 7 346
1963260N27266 1963 86 NA GM CINDY 1963-09-17 12:00:00 TS 29.4000 -94.3000 55 997 hurdat_atl main 24 9 O_____________ hurdat_atl AL041963 29.4000 -94.3000 TS 55 997 0 7 353
1963260N27266 1963 86 NA GM CINDY 1963-09-17 14:00:00 TS 29.6000 -94.3000 55 997 hurdat_atl main 9 0 O_____________ hurdat_atl AL041963 29.6000 -94.3000 L TS 55 997 0 5 0
1963260N27266 1963 86 NA NA CINDY 1963-09-17 15:00:00 TS 29.6719 -94.3317 main 0 0 P_____________ AL041963 29.6719 -94.3317 TS 53 996 0 4 319
1963260N27266 1963 86 NA NA CINDY 1963-09-17 18:00:00 TS 29.8000 -94.5000 50 996 hurdat_atl main 0 0 O_____________ hurdat_atl AL041963 29.8000 -94.5000 TS 50 996 0 3 315
1963260N27266 1963 86 NA NA CINDY 1963-09-17 21:00:00 TS 29.9162 -94.6092 main 0 0 P_____________ AL041963 29.9162 -94.6092 TS 45 0 3 319
1963260N27266 1963 86 NA NA CINDY 1963-09-18 00:00:00 TS 30.0000 -94.7000 40 hurdat_atl main 0 0 O_____________ hurdat_atl AL041963 30.0000 -94.7000 TS 40 0 2 313
1963260N27266 1963 86 NA NA CINDY 1963-09-18 03:00:00 TS 30.0650 -94.7925 main 0 0 P_____________ AL041963 30.0650 -94.7925 TS 37 0 2 300
1963260N27266 1963 86 NA NA CINDY 1963-09-18 06:00:00 TS 30.1000 -94.9000 35 hurdat_atl main 0 0 O_____________ hurdat_atl AL041963 30.1000 -94.9000 TS 35 0 2 285
1963260N27266 1963 86 NA NA CINDY 1963-09-18 09:00:00 TS 30.1225 -95.0349 main 0 0 P_____________ AL041963 30.1225 -95.0349 TS 32 -1 3 270
1963260N27266 1963 86 NA NA CINDY 1963-09-18 12:00:00 TS 30.1000 -95.2000 30 hurdat_atl main 0 0 O_____________ hurdat_atl AL041963 30.1000 -95.2000 TD 30 -1 3 251
1963260N27266 1963 86 NA NA CINDY 1963-09-18 15:00:00 TS 30.0150 -95.3926 main 0 0 P_____________ AL041963 30.0150 -95.3926 TD 27 -1 4 240
1963260N27266 1963 86 NA NA CINDY 1963-09-18 18:00:00 TS 29.9000 -95.6000 25 hurdat_atl main 0 0 O_____________ hurdat_atl AL041963 29.9000 -95.6000 TD 25 -1 4 239
1963260N27266 1963 86 NA NA CINDY 1963-09-18 21:00:00 TS 29.8074 -95.7924 main 0 0 P_____________ AL041963 29.8074 -95.7924 TD 25 -1 4 240
1963260N27266 1963 86 NA NA CINDY 1963-09-19 00:00:00 TS 29.7000 -96.0000 25 hurdat_atl main 0 0 O_____________ hurdat_atl AL041963 29.7000 -96.0000 TD 25 -1 5 238
1963260N27266 1963 86 NA NA CINDY 1963-09-19 03:00:00 TS 29.5650 -96.2425 main 0 0 P_____________ AL041963 29.5650 -96.2425 TD 25 -1 5 235
1963260N27266 1963 86 NA NA CINDY 1963-09-19 06:00:00 TS 29.4000 -96.5000 25 hurdat_atl main 0 0 O_____________ hurdat_atl AL041963 29.4000 -96.5000 TD 25 -1 6 232
1963260N27266 1963 86 NA NA CINDY 1963-09-19 09:00:00 TS 29.2225 -96.7499 main 0 0 P_____________ AL041963 29.2225 -96.7499 TD 25 -1 6 228
1963260N27266 1963 86 NA NA CINDY 1963-09-19 12:00:00 TS 29.0000 -97.0000 25 hurdat_atl main 0 0 O_____________ hurdat_atl AL041963 29.0000 -97.0000 TD 25 -1 7 221
1963260N27266 1963 86 NA NA CINDY 1963-09-19 15:00:00 TS 28.7299 -97.2423 main 0 0 P_____________ AL041963 28.7299 -97.2423 TD 25 -1 7 216
1963260N27266 1963 86 NA NA CINDY 1963-09-19 18:00:00 TS 28.4000 -97.5000 25 hurdat_atl main 0 0 O_____________ hurdat_atl AL041963 28.4000 -97.5000 TD 25 -1 9 214
1963260N27266 1963 86 NA NA CINDY 1963-09-19 21:00:00 TS 28.0152 -97.7906 main 0 0 P_____________ AL041963 28.0152 -97.7906 TD 25 -1 10 214
1963260N27266 1963 86 NA NA CINDY 1963-09-20 00:00:00 TS 27.6000 -98.1000 25 hurdat_atl main 0 O_____________ hurdat_atl AL041963 27.6000 -98.1000 TD 25 -1 10 213

About IBTrACS Database

This database is a web-friendly format of International Best Track Archive for Climate Stewardship (IBTrACS), a global best track data archive curated by NOAA dating back to 1842.

Updated: 2021-12-08